Seattle, Washington
Traffic Map
Current Weather Conditions
Seattle, Washington
Clear
Clear
73°
Feels Like: 73°
Wind Chill: 73° Ceiling: Unl
Heat Index: 73° Visibility: 10mi
Dew Point: 49° Wind: 0mph
Humidity: 42% Direction: ° ()
Pressure: 30.04in Gusts: 0mph
Raw Report DataKBFI 310853Z 00000KT 10SM CLR 23/09 A3004 RMK AO2 SLP172 T02280094 51006
Traffic Incident Summary
Active as of:
Severity:
Category:
InformationThere was an issue retrieving the traffic information for this location. Please try a different location or try again shortly.
Advertisements
Track Severe Weather on mobile